sensor_id;sensor_type;location;lat;lon;timestamp;temperature;humidity
262;DHT22;114;48.260;10.988;2023-12-14T00:00:45;5.80;1.00
262;DHT22;114;48.260;10.988;2023-12-14T00:03:11;5.70;1.00
262;DHT22;114;48.260;10.988;2023-12-14T00:05:36;5.90;1.00
262;DHT22;114;48.260;10.988;2023-12-14T00:08:02;5.70;1.00
262;DHT22;114;48.260;10.988;2023-12-14T00:10:28;5.70;1.00
262;DHT22;114;48.260;10.988;2023-12-14T00:12:53;5.70;1.00
262;DHT22;114;48.260;10.988;2023-12-14T00:15:21;5.60;1.00
262;DHT22;114;48.260;10.988;2023-12-14T00:17:47;5.70;1.00
262;DHT22;114;48.260;10.988;2023-12-14T00:20:13;5.60;1.00
262;DHT22;114;48.260;10.988;2023-12-14T00:22:39;5.60;1.00
262;DHT22;114;48.260;10.988;2023-12-14T00:25:05;5.60;1.00
262;DHT22;114;48.260;10.988;2023-12-14T00:27:31;5.50;1.00
262;DHT22;114;48.260;10.988;2023-12-14T00:29:57;5.50;1.00
262;DHT22;114;48.260;10.988;2023-12-14T00:32:22;5.50;1.00
262;DHT22;114;48.260;10.988;2023-12-14T00:34:48;5.60;1.00
262;DHT22;114;48.260;10.988;2023-12-14T00:37:14;5.50;1.00
262;DHT22;114;48.260;10.988;2023-12-14T00:39:40;5.50;1.00
262;DHT22;114;48.260;10.988;2023-12-14T00:42:06;5.50;1.00
262;DHT22;114;48.260;10.988;2023-12-14T00:44:31;5.40;1.00
262;DHT22;114;48.260;10.988;2023-12-14T00:46:57;5.50;1.00
262;DHT22;114;48.260;10.988;2023-12-14T00:49:24;5.40;1.00
262;DHT22;114;48.260;10.988;2023-12-14T00:51:49;5.50;1.00
262;DHT22;114;48.260;10.988;2023-12-14T00:54:15;5.40;1.00
262;DHT22;114;48.260;10.988;2023-12-14T00:56:41;5.50;1.00
262;DHT22;114;48.260;10.988;2023-12-14T00:59:06;5.40;1.00
262;DHT22;114;48.260;10.988;2023-12-14T01:01:32;5.40;1.00
262;DHT22;114;48.260;10.988;2023-12-14T01:03:58;5.30;1.00
262;DHT22;114;48.260;10.988;2023-12-14T01:06:25;5.40;1.00
262;DHT22;114;48.260;10.988;2023-12-14T01:08:50;5.30;1.00
262;DHT22;114;48.260;10.988;2023-12-14T01:11:16;5.30;1.00
262;DHT22;114;48.260;10.988;2023-12-14T01:13:41;5.30;1.00
262;DHT22;114;48.260;10.988;2023-12-14T01:16:07;5.30;1.00
262;DHT22;114;48.260;10.988;2023-12-14T01:18:34;5.30;1.00
262;DHT22;114;48.260;10.988;2023-12-14T01:21:00;5.30;1.00
262;DHT22;114;48.260;10.988;2023-12-14T01:23:25;5.20;1.00
262;DHT22;114;48.260;10.988;2023-12-14T01:25:51;5.20;1.00
262;DHT22;114;48.260;10.988;2023-12-14T01:28:16;5.20;1.00
262;DHT22;114;48.260;10.988;2023-12-14T01:30:42;5.20;1.00
262;DHT22;114;48.260;10.988;2023-12-14T01:33:08;5.20;1.00
262;DHT22;114;48.260;10.988;2023-12-14T01:35:33;5.10;1.00
262;DHT22;114;48.260;10.988;2023-12-14T01:37:59;5.10;1.00
262;DHT22;114;48.260;10.988;2023-12-14T01:40:25;5.10;1.00
262;DHT22;114;48.260;10.988;2023-12-14T01:42:50;5.10;1.00
262;DHT22;114;48.260;10.988;2023-12-14T01:45:16;5.10;1.00
262;DHT22;114;48.260;10.988;2023-12-14T01:47:42;5.10;1.00
262;DHT22;114;48.260;10.988;2023-12-14T01:50:08;5.10;1.00
262;DHT22;114;48.260;10.988;2023-12-14T01:52:34;5.00;1.00
262;DHT22;114;48.260;10.988;2023-12-14T01:55:00;5.20;1.00
262;DHT22;114;48.260;10.988;2023-12-14T01:57:28;5.00;1.00
262;DHT22;114;48.260;10.988;2023-12-14T01:59:53;5.00;1.00
262;DHT22;114;48.260;10.988;2023-12-14T02:02:19;5.00;1.00
262;DHT22;114;48.260;10.988;2023-12-14T02:04:45;5.00;1.00
262;DHT22;114;48.260;10.988;2023-12-14T02:07:11;5.00;1.00
262;DHT22;114;48.260;10.988;2023-12-14T02:09:37;4.90;1.00
262;DHT22;114;48.260;10.988;2023-12-14T02:12:04;5.00;1.00
262;DHT22;114;48.260;10.988;2023-12-14T02:14:30;4.90;1.00
262;DHT22;114;48.260;10.988;2023-12-14T02:16:55;4.90;1.00
262;DHT22;114;48.260;10.988;2023-12-14T02:19:21;4.90;1.00
262;DHT22;114;48.260;10.988;2023-12-14T02:21:47;4.90;1.00
262;DHT22;114;48.260;10.988;2023-12-14T02:24:12;4.90;1.00
262;DHT22;114;48.260;10.988;2023-12-14T02:26:38;4.80;1.00
262;DHT22;114;48.260;10.988;2023-12-14T02:29:03;4.80;1.00
262;DHT22;114;48.260;10.988;2023-12-14T02:31:29;4.80;1.00
262;DHT22;114;48.260;10.988;2023-12-14T02:33:55;4.80;1.00
262;DHT22;114;48.260;10.988;2023-12-14T02:36:20;4.80;1.00
262;DHT22;114;48.260;10.988;2023-12-14T02:38:46;4.80;1.00
262;DHT22;114;48.260;10.988;2023-12-14T02:41:12;4.70;1.00
262;DHT22;114;48.260;10.988;2023-12-14T02:43:38;4.70;1.00
262;DHT22;114;48.260;10.988;2023-12-14T02:46:05;4.70;1.00
262;DHT22;114;48.260;10.988;2023-12-14T02:48:31;4.70;1.00
262;DHT22;114;48.260;10.988;2023-12-14T02:50:57;4.60;1.00
262;DHT22;114;48.260;10.988;2023-12-14T02:53:25;4.70;1.00
262;DHT22;114;48.260;10.988;2023-12-14T02:55:50;4.60;1.00
262;DHT22;114;48.260;10.988;2023-12-14T02:58:16;4.60;1.00
262;DHT22;114;48.260;10.988;2023-12-14T03:00:42;4.60;1.00
262;DHT22;114;48.260;10.988;2023-12-14T03:03:08;4.60;1.00
262;DHT22;114;48.260;10.988;2023-12-14T03:05:33;4.60;1.00
262;DHT22;114;48.260;10.988;2023-12-14T03:07:59;4.60;1.00
262;DHT22;114;48.260;10.988;2023-12-14T03:10:24;4.70;1.00
262;DHT22;114;48.260;10.988;2023-12-14T03:12:50;4.70;1.00
262;DHT22;114;48.260;10.988;2023-12-14T03:15:17;4.60;1.00
262;DHT22;114;48.260;10.988;2023-12-14T03:17:43;4.60;1.00
262;DHT22;114;48.260;10.988;2023-12-14T03:20:09;4.60;1.00
262;DHT22;114;48.260;10.988;2023-12-14T03:22:35;4.60;1.00
262;DHT22;114;48.260;10.988;2023-12-14T03:25:00;4.60;1.00
262;DHT22;114;48.260;10.988;2023-12-14T03:27:26;4.60;1.00
262;DHT22;114;48.260;10.988;2023-12-14T03:29:51;4.60;1.00
262;DHT22;114;48.260;10.988;2023-12-14T03:32:17;4.60;1.00
262;DHT22;114;48.260;10.988;2023-12-14T03:34:43;4.60;1.00
262;DHT22;114;48.260;10.988;2023-12-14T03:37:08;4.60;1.00
262;DHT22;114;48.260;10.988;2023-12-14T03:39:34;4.70;1.00
262;DHT22;114;48.260;10.988;2023-12-14T03:42:00;4.70;1.00
262;DHT22;114;48.260;10.988;2023-12-14T03:44:25;4.70;1.00
262;DHT22;114;48.260;10.988;2023-12-14T03:46:51;4.60;1.00
262;DHT22;114;48.260;10.988;2023-12-14T03:49:16;4.60;1.00
262;DHT22;114;48.260;10.988;2023-12-14T03:51:42;4.60;1.00
262;DHT22;114;48.260;10.988;2023-12-14T03:54:08;4.60;1.00
262;DHT22;114;48.260;10.988;2023-12-14T03:56:37;4.60;1.00
262;DHT22;114;48.260;10.988;2023-12-14T03:59:02;4.60;1.00
262;DHT22;114;48.260;10.988;2023-12-14T04:01:28;4.60;1.00
262;DHT22;114;48.260;10.988;2023-12-14T04:03:53;4.70;1.00
262;DHT22;114;48.260;10.988;2023-12-14T04:06:19;4.70;1.00
262;DHT22;114;48.260;10.988;2023-12-14T04:08:45;4.70;1.00
262;DHT22;114;48.260;10.988;2023-12-14T04:11:10;4.70;1.00
262;DHT22;114;48.260;10.988;2023-12-14T04:13:37;4.70;1.00
262;DHT22;114;48.260;10.988;2023-12-14T04:16:03;4.70;1.00
262;DHT22;114;48.260;10.988;2023-12-14T04:18:29;4.80;1.00
262;DHT22;114;48.260;10.988;2023-12-14T04:20:55;4.80;1.00
262;DHT22;114;48.260;10.988;2023-12-14T04:23:20;4.80;1.00
262;DHT22;114;48.260;10.988;2023-12-14T04:25:46;4.90;1.00
262;DHT22;114;48.260;10.988;2023-12-14T04:28:11;4.80;1.00
262;DHT22;114;48.260;10.988;2023-12-14T04:30:37;4.80;1.00
262;DHT22;114;48.260;10.988;2023-12-14T04:33:03;4.80;1.00
262;DHT22;114;48.260;10.988;2023-12-14T04:35:28;4.90;1.00
262;DHT22;114;48.260;10.988;2023-12-14T04:37:54;4.90;1.00
262;DHT22;114;48.260;10.988;2023-12-14T04:40:20;4.90;1.00
262;DHT22;114;48.260;10.988;2023-12-14T04:42:46;4.90;1.00
262;DHT22;114;48.260;10.988;2023-12-14T04:45:11;4.90;1.00
262;DHT22;114;48.260;10.988;2023-12-14T04:47:39;4.90;1.00
262;DHT22;114;48.260;10.988;2023-12-14T04:50:05;4.90;1.00
262;DHT22;114;48.260;10.988;2023-12-14T04:52:32;4.90;1.00
262;DHT22;114;48.260;10.988;2023-12-14T04:54:58;5.00;1.00
262;DHT22;114;48.260;10.988;2023-12-14T04:57:24;5.00;1.00
262;DHT22;114;48.260;10.988;2023-12-14T04:59:50;5.00;1.00
262;DHT22;114;48.260;10.988;2023-12-14T05:02:15;5.00;1.00
262;DHT22;114;48.260;10.988;2023-12-14T05:04:41;4.90;1.00
262;DHT22;114;48.260;10.988;2023-12-14T05:07:06;4.90;1.00
262;DHT22;114;48.260;10.988;2023-12-14T05:09:32;5.00;1.00
262;DHT22;114;48.260;10.988;2023-12-14T05:11:58;4.90;1.00
262;DHT22;114;48.260;10.988;2023-12-14T05:14:23;4.90;1.00
262;DHT22;114;48.260;10.988;2023-12-14T05:16:50;4.90;1.00
262;DHT22;114;48.260;10.988;2023-12-14T05:19:15;4.90;1.00
262;DHT22;114;48.260;10.988;2023-12-14T05:21:41;5.00;1.00
262;DHT22;114;48.260;10.988;2023-12-14T05:24:07;5.00;1.00
262;DHT22;114;48.260;10.988;2023-12-14T05:26:32;5.00;1.00
262;DHT22;114;48.260;10.988;2023-12-14T05:28:58;5.00;1.00
262;DHT22;114;48.260;10.988;2023-12-14T05:31:24;5.00;1.00
262;DHT22;114;48.260;10.988;2023-12-14T05:33:49;5.00;1.00
262;DHT22;114;48.260;10.988;2023-12-14T05:36:15;5.00;1.00
262;DHT22;114;48.260;10.988;2023-12-14T05:38:41;5.00;1.00
262;DHT22;114;48.260;10.988;2023-12-14T05:41:08;5.00;1.00
262;DHT22;114;48.260;10.988;2023-12-14T05:43:33;5.00;1.00
262;DHT22;114;48.260;10.988;2023-12-14T05:45:59;5.00;1.00
262;DHT22;114;48.260;10.988;2023-12-14T05:48:24;5.10;1.00
262;DHT22;114;48.260;10.988;2023-12-14T05:50:52;5.00;1.00
262;DHT22;114;48.260;10.988;2023-12-14T05:53:17;5.00;1.00
262;DHT22;114;48.260;10.988;2023-12-14T05:55:49;5.00;1.00
262;DHT22;114;48.260;10.988;2023-12-14T05:58:15;5.00;1.00
262;DHT22;114;48.260;10.988;2023-12-14T06:00:41;5.00;1.00
262;DHT22;114;48.260;10.988;2023-12-14T06:03:06;5.00;1.00
262;DHT22;114;48.260;10.988;2023-12-14T06:05:32;5.00;1.00
262;DHT22;114;48.260;10.988;2023-12-14T06:07:57;5.00;1.00
262;DHT22;114;48.260;10.988;2023-12-14T06:10:23;5.00;1.00
262;DHT22;114;48.260;10.988;2023-12-14T06:12:49;5.00;1.00
262;DHT22;114;48.260;10.988;2023-12-14T06:15:14;4.90;1.00
262;DHT22;114;48.260;10.988;2023-12-14T06:17:40;5.00;1.00
262;DHT22;114;48.260;10.988;2023-12-14T06:20:08;5.00;1.00
262;DHT22;114;48.260;10.988;2023-12-14T06:22:36;5.00;1.00
262;DHT22;114;48.260;10.988;2023-12-14T06:25:02;4.90;1.00
262;DHT22;114;48.260;10.988;2023-12-14T06:27:29;5.00;1.00
262;DHT22;114;48.260;10.988;2023-12-14T06:29:54;5.00;1.00
262;DHT22;114;48.260;10.988;2023-12-14T06:32:20;5.10;1.00
262;DHT22;114;48.260;10.988;2023-12-14T06:34:46;5.00;1.00
262;DHT22;114;48.260;10.988;2023-12-14T06:37:11;5.10;1.00
262;DHT22;114;48.260;10.988;2023-12-14T06:39:37;5.00;1.00
262;DHT22;114;48.260;10.988;2023-12-14T06:42:03;5.10;1.00
262;DHT22;114;48.260;10.988;2023-12-14T06:44:28;5.10;1.00
262;DHT22;114;48.260;10.988;2023-12-14T06:46:56;5.10;1.00
262;DHT22;114;48.260;10.988;2023-12-14T06:49:24;5.10;1.00
262;DHT22;114;48.260;10.988;2023-12-14T06:51:50;5.10;1.00
262;DHT22;114;48.260;10.988;2023-12-14T06:54:16;5.10;1.00
262;DHT22;114;48.260;10.988;2023-12-14T06:56:42;5.10;1.00
262;DHT22;114;48.260;10.988;2023-12-14T06:59:07;5.10;1.00
262;DHT22;114;48.260;10.988;2023-12-14T07:01:33;5.20;1.00
262;DHT22;114;48.260;10.988;2023-12-14T07:03:59;5.10;1.00
262;DHT22;114;48.260;10.988;2023-12-14T07:06:24;5.10;1.00
262;DHT22;114;48.260;10.988;2023-12-14T07:08:50;5.10;1.00
262;DHT22;114;48.260;10.988;2023-12-14T07:11:16;5.10;1.00
262;DHT22;114;48.260;10.988;2023-12-14T07:13:42;5.10;1.00
262;DHT22;114;48.260;10.988;2023-12-14T07:16:10;5.10;1.00
262;DHT22;114;48.260;10.988;2023-12-14T07:18:36;5.30;1.00
262;DHT22;114;48.260;10.988;2023-12-14T07:21:03;5.10;1.00
262;DHT22;114;48.260;10.988;2023-12-14T07:23:29;5.10;1.00
262;DHT22;114;48.260;10.988;2023-12-14T07:25:55;5.20;1.00
262;DHT22;114;48.260;10.988;2023-12-14T07:28:21;5.20;1.00
262;DHT22;114;48.260;10.988;2023-12-14T07:30:47;5.30;1.00
262;DHT22;114;48.260;10.988;2023-12-14T07:33:13;5.30;1.00
262;DHT22;114;48.260;10.988;2023-12-14T07:35:39;5.30;1.00
262;DHT22;114;48.260;10.988;2023-12-14T07:38:05;5.30;1.00
262;DHT22;114;48.260;10.988;2023-12-14T07:40:30;5.30;1.00
262;DHT22;114;48.260;10.988;2023-12-14T07:42:56;5.40;1.00
262;DHT22;114;48.260;10.988;2023-12-14T07:45:21;5.50;1.00
262;DHT22;114;48.260;10.988;2023-12-14T07:47:47;5.40;1.00
262;DHT22;114;48.260;10.988;2023-12-14T07:50:13;5.50;1.00
262;DHT22;114;48.260;10.988;2023-12-14T07:52:39;5.50;1.00
262;DHT22;114;48.260;10.988;2023-12-14T07:55:05;5.50;1.00
262;DHT22;114;48.260;10.988;2023-12-14T07:57:31;5.40;1.00
262;DHT22;114;48.260;10.988;2023-12-14T07:59:57;5.40;1.00
262;DHT22;114;48.260;10.988;2023-12-14T08:02:23;5.50;1.00
262;DHT22;114;48.260;10.988;2023-12-14T08:04:48;5.50;1.00
262;DHT22;114;48.260;10.988;2023-12-14T08:07:14;5.70;1.00
262;DHT22;114;48.260;10.988;2023-12-14T08:09:40;5.60;1.00
262;DHT22;114;48.260;10.988;2023-12-14T08:12:05;5.60;1.00
262;DHT22;114;48.260;10.988;2023-12-14T08:14:34;5.50;1.00
262;DHT22;114;48.260;10.988;2023-12-14T08:17:03;5.60;1.00
262;DHT22;114;48.260;10.988;2023-12-14T08:19:29;5.60;1.00
262;DHT22;114;48.260;10.988;2023-12-14T08:21:55;5.80;1.00
262;DHT22;114;48.260;10.988;2023-12-14T08:24:20;5.70;1.00
262;DHT22;114;48.260;10.988;2023-12-14T08:26:46;5.70;1.00
262;DHT22;114;48.260;10.988;2023-12-14T08:29:12;5.80;1.00
262;DHT22;114;48.260;10.988;2023-12-14T08:31:37;5.80;1.00
262;DHT22;114;48.260;10.988;2023-12-14T08:34:03;5.90;1.00
262;DHT22;114;48.260;10.988;2023-12-14T08:36:29;5.90;1.00
262;DHT22;114;48.260;10.988;2023-12-14T08:38:55;5.90;1.00
262;DHT22;114;48.260;10.988;2023-12-14T08:41:21;5.90;1.00
262;DHT22;114;48.260;10.988;2023-12-14T08:43:46;5.90;1.00
262;DHT22;114;48.260;10.988;2023-12-14T08:46:12;5.90;1.00
262;DHT22;114;48.260;10.988;2023-12-14T08:48:38;6.00;1.00
262;DHT22;114;48.260;10.988;2023-12-14T08:51:04;5.90;1.00
262;DHT22;114;48.260;10.988;2023-12-14T08:53:30;5.90;1.00
262;DHT22;114;48.260;10.988;2023-12-14T08:55:58;6.00;1.00
262;DHT22;114;48.260;10.988;2023-12-14T08:58:23;5.90;1.00
262;DHT22;114;48.260;10.988;2023-12-14T09:00:49;5.90;1.00
262;DHT22;114;48.260;10.988;2023-12-14T09:03:18;6.00;1.00
262;DHT22;114;48.260;10.988;2023-12-14T09:05:44;6.00;1.00
262;DHT22;114;48.260;10.988;2023-12-14T09:08:10;5.90;1.00
262;DHT22;114;48.260;10.988;2023-12-14T09:10:36;5.90;1.00
262;DHT22;114;48.260;10.988;2023-12-14T09:13:01;6.10;1.00
262;DHT22;114;48.260;10.988;2023-12-14T09:15:32;5.90;1.00
262;DHT22;114;48.260;10.988;2023-12-14T09:17:58;5.80;1.00
262;DHT22;114;48.260;10.988;2023-12-14T09:20:24;5.90;1.00
262;DHT22;114;48.260;10.988;2023-12-14T09:22:50;5.90;1.00
262;DHT22;114;48.260;10.988;2023-12-14T09:25:16;5.80;1.00
262;DHT22;114;48.260;10.988;2023-12-14T09:27:42;5.70;1.00
262;DHT22;114;48.260;10.988;2023-12-14T09:30:08;5.70;1.00
262;DHT22;114;48.260;10.988;2023-12-14T09:32:34;5.80;1.00
262;DHT22;114;48.260;10.988;2023-12-14T09:34:59;5.80;1.00
262;DHT22;114;48.260;10.988;2023-12-14T09:37:25;5.90;1.00
262;DHT22;114;48.260;10.988;2023-12-14T09:39:51;5.90;1.00
262;DHT22;114;48.260;10.988;2023-12-14T09:42:20;6.00;1.00
262;DHT22;114;48.260;10.988;2023-12-14T09:44:47;6.00;1.00
262;DHT22;114;48.260;10.988;2023-12-14T09:47:13;6.00;1.00
262;DHT22;114;48.260;10.988;2023-12-14T09:49:41;6.10;1.00
262;DHT22;114;48.260;10.988;2023-12-14T09:52:09;6.00;1.00
262;DHT22;114;48.260;10.988;2023-12-14T09:54:34;6.00;1.00
262;DHT22;114;48.260;10.988;2023-12-14T09:57:00;6.20;1.00
262;DHT22;114;48.260;10.988;2023-12-14T09:59:25;6.00;1.00
262;DHT22;114;48.260;10.988;2023-12-14T10:01:51;6.10;1.00
262;DHT22;114;48.260;10.988;2023-12-14T10:04:18;6.00;1.00
262;DHT22;114;48.260;10.988;2023-12-14T10:06:46;6.10;1.00
262;DHT22;114;48.260;10.988;2023-12-14T10:09:13;6.10;1.00
262;DHT22;114;48.260;10.988;2023-12-14T10:11:41;6.00;1.00
262;DHT22;114;48.260;10.988;2023-12-14T10:14:24;6.10;1.00
262;DHT22;114;48.260;10.988;2023-12-14T10:16:51;6.10;1.00
262;DHT22;114;48.260;10.988;2023-12-14T10:19:18;6.30;1.00
262;DHT22;114;48.260;10.988;2023-12-14T10:21:43;6.30;1.00
262;DHT22;114;48.260;10.988;2023-12-14T10:24:12;6.40;1.00
262;DHT22;114;48.260;10.988;2023-12-14T10:26:37;6.60;1.00
262;DHT22;114;48.260;10.988;2023-12-14T10:29:03;6.70;1.00
262;DHT22;114;48.260;10.988;2023-12-14T10:31:30;6.70;1.00
262;DHT22;114;48.260;10.988;2023-12-14T10:33:56;6.60;1.00
262;DHT22;114;48.260;10.988;2023-12-14T10:36:25;6.50;1.00
262;DHT22;114;48.260;10.988;2023-12-14T10:38:57;6.50;1.00
262;DHT22;114;48.260;10.988;2023-12-14T10:41:24;6.50;1.00
262;DHT22;114;48.260;10.988;2023-12-14T10:43:56;6.40;1.00
262;DHT22;114;48.260;10.988;2023-12-14T10:46:23;6.40;1.00
262;DHT22;114;48.260;10.988;2023-12-14T10:48:50;6.40;1.00
262;DHT22;114;48.260;10.988;2023-12-14T10:51:20;6.30;1.00
262;DHT22;114;48.260;10.988;2023-12-14T10:53:46;6.30;1.00
262;DHT22;114;48.260;10.988;2023-12-14T10:56:14;6.30;1.00
262;DHT22;114;48.260;10.988;2023-12-14T10:58:45;6.70;1.00
262;DHT22;114;48.260;10.988;2023-12-14T11:01:23;7.00;1.00
262;DHT22;114;48.260;10.988;2023-12-14T11:03:54;7.00;1.00
262;DHT22;114;48.260;10.988;2023-12-14T11:06:36;7.00;1.00
262;DHT22;114;48.260;10.988;2023-12-14T11:09:07;6.90;1.00
262;DHT22;114;48.260;10.988;2023-12-14T11:14:19;6.80;1.00
262;DHT22;114;48.260;10.988;2023-12-14T11:16:47;6.90;1.00
262;DHT22;114;48.260;10.988;2023-12-14T11:21:48;6.70;1.00
262;DHT22;114;48.260;10.988;2023-12-14T11:24:22;6.90;1.00
262;DHT22;114;48.260;10.988;2023-12-14T11:26:51;7.00;1.00
262;DHT22;114;48.260;10.988;2023-12-14T11:29:19;7.00;1.00
262;DHT22;114;48.260;10.988;2023-12-14T11:31:46;7.00;1.00
262;DHT22;114;48.260;10.988;2023-12-14T11:34:12;7.10;1.00
262;DHT22;114;48.260;10.988;2023-12-14T11:36:38;7.10;1.00
262;DHT22;114;48.260;10.988;2023-12-14T11:39:09;7.20;1.00
262;DHT22;114;48.260;10.988;2023-12-14T11:41:35;7.10;1.00
262;DHT22;114;48.260;10.988;2023-12-14T11:44:01;7.10;1.00
262;DHT22;114;48.260;10.988;2023-12-14T11:46:28;7.20;1.00
262;DHT22;114;48.260;10.988;2023-12-14T11:48:56;7.20;1.00
262;DHT22;114;48.260;10.988;2023-12-14T11:51:22;7.20;1.00
262;DHT22;114;48.260;10.988;2023-12-14T11:53:47;7.20;1.00
262;DHT22;114;48.260;10.988;2023-12-14T11:56:18;7.10;1.00
262;DHT22;114;48.260;10.988;2023-12-14T11:58:45;7.00;1.00
262;DHT22;114;48.260;10.988;2023-12-14T12:01:20;7.00;1.00
262;DHT22;114;48.260;10.988;2023-12-14T12:03:50;7.00;1.00
262;DHT22;114;48.260;10.988;2023-12-14T12:06:27;7.10;1.00
262;DHT22;114;48.260;10.988;2023-12-14T12:08:56;7.20;1.00
262;DHT22;114;48.260;10.988;2023-12-14T12:11:23;7.20;1.00
262;DHT22;114;48.260;10.988;2023-12-14T12:13:52;7.20;1.00
262;DHT22;114;48.260;10.988;2023-12-14T12:16:18;7.20;1.00
262;DHT22;114;48.260;10.988;2023-12-14T12:18:44;7.30;1.00
262;DHT22;114;48.260;10.988;2023-12-14T12:21:11;7.40;1.00
262;DHT22;114;48.260;10.988;2023-12-14T12:23:37;7.50;1.00
262;DHT22;114;48.260;10.988;2023-12-14T12:26:03;7.50;1.00
262;DHT22;114;48.260;10.988;2023-12-14T12:28:31;7.30;1.00
262;DHT22;114;48.260;10.988;2023-12-14T12:30:57;7.20;1.00
262;DHT22;114;48.260;10.988;2023-12-14T12:33:23;7.20;1.00
262;DHT22;114;48.260;10.988;2023-12-14T12:35:48;7.10;1.00
262;DHT22;114;48.260;10.988;2023-12-14T12:38:14;7.20;1.00
262;DHT22;114;48.260;10.988;2023-12-14T12:40:42;7.20;1.00
262;DHT22;114;48.260;10.988;2023-12-14T12:43:07;7.20;1.00
262;DHT22;114;48.260;10.988;2023-12-14T12:45:33;7.20;1.00
262;DHT22;114;48.260;10.988;2023-12-14T12:48:01;7.10;1.00
262;DHT22;114;48.260;10.988;2023-12-14T12:50:29;7.10;1.00
262;DHT22;114;48.260;10.988;2023-12-14T12:52:55;7.20;1.00
262;DHT22;114;48.260;10.988;2023-12-14T12:55:20;7.30;1.00
262;DHT22;114;48.260;10.988;2023-12-14T12:57:47;7.40;1.00
262;DHT22;114;48.260;10.988;2023-12-14T13:00:13;7.40;1.00
262;DHT22;114;48.260;10.988;2023-12-14T13:02:42;7.50;1.00
262;DHT22;114;48.260;10.988;2023-12-14T13:05:09;7.50;1.00
262;DHT22;114;48.260;10.988;2023-12-14T13:07:35;7.50;1.00
262;DHT22;114;48.260;10.988;2023-12-14T13:10:04;7.60;1.00
262;DHT22;114;48.260;10.988;2023-12-14T13:12:31;7.40;1.00
262;DHT22;114;48.260;10.988;2023-12-14T13:14:57;7.40;1.00
262;DHT22;114;48.260;10.988;2023-12-14T13:17:22;7.40;1.00
262;DHT22;114;48.260;10.988;2023-12-14T13:19:49;7.20;1.00
262;DHT22;114;48.260;10.988;2023-12-14T13:22:15;7.10;1.00
262;DHT22;114;48.260;10.988;2023-12-14T13:24:40;7.20;1.00
262;DHT22;114;48.260;10.988;2023-12-14T13:27:06;7.20;1.00
262;DHT22;114;48.260;10.988;2023-12-14T13:29:32;7.30;1.00
262;DHT22;114;48.260;10.988;2023-12-14T13:32:00;7.20;1.00
262;DHT22;114;48.260;10.988;2023-12-14T13:34:27;7.10;1.00
262;DHT22;114;48.260;10.988;2023-12-14T13:36:54;7.10;1.00
262;DHT22;114;48.260;10.988;2023-12-14T13:39:20;7.00;1.00
262;DHT22;114;48.260;10.988;2023-12-14T13:41:45;7.20;1.00
262;DHT22;114;48.260;10.988;2023-12-14T13:44:11;7.20;1.00
262;DHT22;114;48.260;10.988;2023-12-14T13:46:36;7.30;1.00
262;DHT22;114;48.260;10.988;2023-12-14T13:49:02;7.30;1.00
262;DHT22;114;48.260;10.988;2023-12-14T13:51:28;7.30;1.00
262;DHT22;114;48.260;10.988;2023-12-14T13:53:54;7.20;1.00
262;DHT22;114;48.260;10.988;2023-12-14T13:56:20;7.10;1.00
262;DHT22;114;48.260;10.988;2023-12-14T13:58:46;7.10;1.00
262;DHT22;114;48.260;10.988;2023-12-14T14:01:11;7.00;1.00
262;DHT22;114;48.260;10.988;2023-12-14T14:03:37;7.00;1.00
262;DHT22;114;48.260;10.988;2023-12-14T14:06:04;7.00;1.00
262;DHT22;114;48.260;10.988;2023-12-14T14:08:30;7.10;1.00
262;DHT22;114;48.260;10.988;2023-12-14T14:11:00;7.10;1.00
262;DHT22;114;48.260;10.988;2023-12-14T14:13:26;7.00;1.00
262;DHT22;114;48.260;10.988;2023-12-14T14:15:52;7.00;1.00
262;DHT22;114;48.260;10.988;2023-12-14T14:18:18;7.00;1.00
262;DHT22;114;48.260;10.988;2023-12-14T14:20:43;7.00;1.00
262;DHT22;114;48.260;10.988;2023-12-14T14:23:09;7.10;1.00
262;DHT22;114;48.260;10.988;2023-12-14T14:25:35;7.10;1.00
262;DHT22;114;48.260;10.988;2023-12-14T14:28:01;7.20;1.00
262;DHT22;114;48.260;10.988;2023-12-14T14:30:26;7.10;1.00
262;DHT22;114;48.260;10.988;2023-12-14T14:32:52;7.10;1.00
262;DHT22;114;48.260;10.988;2023-12-14T14:35:18;7.00;1.00
262;DHT22;114;48.260;10.988;2023-12-14T14:37:44;6.90;1.00
262;DHT22;114;48.260;10.988;2023-12-14T14:40:12;6.90;1.00
262;DHT22;114;48.260;10.988;2023-12-14T14:42:39;6.90;1.00
262;DHT22;114;48.260;10.988;2023-12-14T14:45:09;6.80;1.00
262;DHT22;114;48.260;10.988;2023-12-14T14:47:35;6.80;1.00
262;DHT22;114;48.260;10.988;2023-12-14T14:50:02;6.70;1.00
262;DHT22;114;48.260;10.988;2023-12-14T14:52:33;6.70;1.00
262;DHT22;114;48.260;10.988;2023-12-14T14:54:59;6.70;1.00
262;DHT22;114;48.260;10.988;2023-12-14T14:57:25;6.70;1.00
262;DHT22;114;48.260;10.988;2023-12-14T14:59:51;6.70;1.00
262;DHT22;114;48.260;10.988;2023-12-14T15:02:17;6.70;1.00
262;DHT22;114;48.260;10.988;2023-12-14T15:04:43;6.50;1.00
262;DHT22;114;48.260;10.988;2023-12-14T15:07:08;6.40;1.00
262;DHT22;114;48.260;10.988;2023-12-14T15:09:34;6.40;1.00
262;DHT22;114;48.260;10.988;2023-12-14T15:11:59;6.40;1.00
262;DHT22;114;48.260;10.988;2023-12-14T15:14:25;6.20;1.00
262;DHT22;114;48.260;10.988;2023-12-14T15:16:53;6.20;1.00
262;DHT22;114;48.260;10.988;2023-12-14T15:19:19;6.10;1.00
262;DHT22;114;48.260;10.988;2023-12-14T15:21:45;6.00;1.00
262;DHT22;114;48.260;10.988;2023-12-14T15:24:10;6.00;1.00
262;DHT22;114;48.260;10.988;2023-12-14T15:26:36;5.90;1.00
262;DHT22;114;48.260;10.988;2023-12-14T15:29:01;5.80;1.00
262;DHT22;114;48.260;10.988;2023-12-14T15:31:27;5.80;1.00
262;DHT22;114;48.260;10.988;2023-12-14T15:33:53;5.70;1.00
262;DHT22;114;48.260;10.988;2023-12-14T15:36:18;5.70;1.00
262;DHT22;114;48.260;10.988;2023-12-14T15:38:44;5.70;1.00
262;DHT22;114;48.260;10.988;2023-12-14T15:41:13;5.60;1.00
262;DHT22;114;48.260;10.988;2023-12-14T15:43:38;5.50;1.00
262;DHT22;114;48.260;10.988;2023-12-14T15:46:04;5.50;1.00
262;DHT22;114;48.260;10.988;2023-12-14T15:48:30;5.50;1.00
262;DHT22;114;48.260;10.988;2023-12-14T15:50:56;5.50;1.00
262;DHT22;114;48.260;10.988;2023-12-14T15:53:22;5.50;1.00
262;DHT22;114;48.260;10.988;2023-12-14T15:55:47;5.40;1.00
262;DHT22;114;48.260;10.988;2023-12-14T15:58:14;5.50;1.00
262;DHT22;114;48.260;10.988;2023-12-14T16:00:39;5.50;1.00
262;DHT22;114;48.260;10.988;2023-12-14T16:03:05;5.50;1.00
262;DHT22;114;48.260;10.988;2023-12-14T16:05:33;5.40;1.00
262;DHT22;114;48.260;10.988;2023-12-14T16:07:59;5.40;1.00
262;DHT22;114;48.260;10.988;2023-12-14T16:10:25;5.40;1.00
262;DHT22;114;48.260;10.988;2023-12-14T16:12:50;5.40;1.00
262;DHT22;114;48.260;10.988;2023-12-14T16:15:16;5.30;1.00
262;DHT22;114;48.260;10.988;2023-12-14T16:17:42;5.30;1.00
262;DHT22;114;48.260;10.988;2023-12-14T16:20:08;5.40;1.00
262;DHT22;114;48.260;10.988;2023-12-14T16:22:34;5.40;1.00
262;DHT22;114;48.260;10.988;2023-12-14T16:25:00;5.30;1.00
262;DHT22;114;48.260;10.988;2023-12-14T16:27:25;5.30;1.00
262;DHT22;114;48.260;10.988;2023-12-14T16:29:51;5.40;1.00
262;DHT22;114;48.260;10.988;2023-12-14T16:32:16;5.30;1.00
262;DHT22;114;48.260;10.988;2023-12-14T16:34:42;5.30;1.00
262;DHT22;114;48.260;10.988;2023-12-14T16:37:08;5.30;1.00
262;DHT22;114;48.260;10.988;2023-12-14T16:39:33;5.30;1.00
262;DHT22;114;48.260;10.988;2023-12-14T16:42:01;5.30;1.00
262;DHT22;114;48.260;10.988;2023-12-14T16:44:27;5.30;1.00
262;DHT22;114;48.260;10.988;2023-12-14T16:46:53;5.30;1.00
262;DHT22;114;48.260;10.988;2023-12-14T16:49:18;5.30;1.00